sensor_id;sensor_type;location;lat;lon;timestamp;pressure;altitude;pressure_sealevel;temperature
20103;BMP180;10210;52.284;9.892;2023-09-07T00:00:15;101244.00;;;27.40
20103;BMP180;10210;52.284;9.892;2023-09-07T00:02:41;101253.00;;;27.30
20103;BMP180;10210;52.284;9.892;2023-09-07T00:05:07;101245.00;;;27.30
20103;BMP180;10210;52.284;9.892;2023-09-07T00:07:34;101248.00;;;27.20
20103;BMP180;10210;52.284;9.892;2023-09-07T00:10:00;101252.00;;;27.20
20103;BMP180;10210;52.284;9.892;2023-09-07T00:12:26;101251.00;;;27.20
20103;BMP180;10210;52.284;9.892;2023-09-07T00:14:53;101252.00;;;27.10
20103;BMP180;10210;52.284;9.892;2023-09-07T00:17:22;101248.00;;;27.00
20103;BMP180;10210;52.284;9.892;2023-09-07T00:19:48;101245.00;;;27.00
20103;BMP180;10210;52.284;9.892;2023-09-07T00:22:17;101238.00;;;27.00
20103;BMP180;10210;52.284;9.892;2023-09-07T00:24:44;101247.00;;;26.90
20103;BMP180;10210;52.284;9.892;2023-09-07T00:27:10;101244.00;;;26.90
20103;BMP180;10210;52.284;9.892;2023-09-07T00:29:37;101242.00;;;26.90
20103;BMP180;10210;52.284;9.892;2023-09-07T00:32:04;101235.00;;;26.80
20103;BMP180;10210;52.284;9.892;2023-09-07T00:34:30;101238.00;;;26.80
20103;BMP180;10210;52.284;9.892;2023-09-07T00:36:57;101249.00;;;26.80
20103;BMP180;10210;52.284;9.892;2023-09-07T00:39:23;101244.00;;;26.70
20103;BMP180;10210;52.284;9.892;2023-09-07T00:41:48;101244.00;;;26.70
20103;BMP180;10210;52.284;9.892;2023-09-07T00:44:14;101242.00;;;26.70
20103;BMP180;10210;52.284;9.892;2023-09-07T00:46:41;101246.00;;;26.60
20103;BMP180;10210;52.284;9.892;2023-09-07T00:49:07;101245.00;;;26.60
20103;BMP180;10210;52.284;9.892;2023-09-07T00:51:33;101243.00;;;26.50
20103;BMP180;10210;52.284;9.892;2023-09-07T00:53:59;101234.00;;;26.50
20103;BMP180;10210;52.284;9.892;2023-09-07T00:56:26;101236.00;;;26.50
20103;BMP180;10210;52.284;9.892;2023-09-07T00:58:53;101234.00;;;26.40
20103;BMP180;10210;52.284;9.892;2023-09-07T01:01:21;101230.00;;;26.40
20103;BMP180;10210;52.284;9.892;2023-09-07T01:03:47;101238.00;;;26.40
20103;BMP180;10210;52.284;9.892;2023-09-07T01:06:25;101235.00;;;26.30
20103;BMP180;10210;52.284;9.892;2023-09-07T01:08:57;101235.00;;;26.30
20103;BMP180;10210;52.284;9.892;2023-09-07T01:11:24;101236.00;;;26.30
20103;BMP180;10210;52.284;9.892;2023-09-07T01:13:50;101229.00;;;26.20
20103;BMP180;10210;52.284;9.892;2023-09-07T01:16:21;101228.00;;;26.20
20103;BMP180;10210;52.284;9.892;2023-09-07T01:18:49;101222.00;;;26.20
20103;BMP180;10210;52.284;9.892;2023-09-07T01:21:15;101221.00;;;26.10
20103;BMP180;10210;52.284;9.892;2023-09-07T01:23:43;101230.00;;;26.10
20103;BMP180;10210;52.284;9.892;2023-09-07T01:26:10;101221.00;;;26.00
20103;BMP180;10210;52.284;9.892;2023-09-07T01:28:37;101222.00;;;26.00
20103;BMP180;10210;52.284;9.892;2023-09-07T01:31:04;101225.00;;;26.00
20103;BMP180;10210;52.284;9.892;2023-09-07T01:33:31;101220.00;;;25.90
20103;BMP180;10210;52.284;9.892;2023-09-07T01:35:57;101223.00;;;25.90
20103;BMP180;10210;52.284;9.892;2023-09-07T01:38:23;101233.00;;;25.90
20103;BMP180;10210;52.284;9.892;2023-09-07T01:40:49;101237.00;;;25.90
20103;BMP180;10210;52.284;9.892;2023-09-07T01:43:15;101221.00;;;25.80
20103;BMP180;10210;52.284;9.892;2023-09-07T01:45:40;101228.00;;;25.80
20103;BMP180;10210;52.284;9.892;2023-09-07T01:48:13;101223.00;;;25.80
20103;BMP180;10210;52.284;9.892;2023-09-07T01:50:39;101216.00;;;25.70
20103;BMP180;10210;52.284;9.892;2023-09-07T01:53:05;101221.00;;;25.70
20103;BMP180;10210;52.284;9.892;2023-09-07T01:55:32;101224.00;;;25.60
20103;BMP180;10210;52.284;9.892;2023-09-07T01:57:57;101222.00;;;25.60
20103;BMP180;10210;52.284;9.892;2023-09-07T02:00:24;101215.00;;;25.60
20103;BMP180;10210;52.284;9.892;2023-09-07T02:02:49;101218.00;;;25.50
20103;BMP180;10210;52.284;9.892;2023-09-07T02:05:15;101217.00;;;25.40
20103;BMP180;10210;52.284;9.892;2023-09-07T02:07:42;101218.00;;;25.40
20103;BMP180;10210;52.284;9.892;2023-09-07T02:10:09;101226.00;;;25.40
20103;BMP180;10210;52.284;9.892;2023-09-07T02:12:35;101225.00;;;25.40
20103;BMP180;10210;52.284;9.892;2023-09-07T02:15:04;101223.00;;;25.30
20103;BMP180;10210;52.284;9.892;2023-09-07T02:17:30;101217.00;;;25.30
20103;BMP180;10210;52.284;9.892;2023-09-07T02:19:56;101222.00;;;25.30
20103;BMP180;10210;52.284;9.892;2023-09-07T02:22:22;101217.00;;;25.30
20103;BMP180;10210;52.284;9.892;2023-09-07T02:24:48;101222.00;;;25.20
20103;BMP180;10210;52.284;9.892;2023-09-07T02:27:13;101221.00;;;25.20
20103;BMP180;10210;52.284;9.892;2023-09-07T02:29:39;101225.00;;;25.20
20103;BMP180;10210;52.284;9.892;2023-09-07T02:32:06;101227.00;;;25.20
20103;BMP180;10210;52.284;9.892;2023-09-07T02:34:32;101214.00;;;25.10
20103;BMP180;10210;52.284;9.892;2023-09-07T02:37:02;101222.00;;;25.10
20103;BMP180;10210;52.284;9.892;2023-09-07T02:39:28;101223.00;;;25.00
20103;BMP180;10210;52.284;9.892;2023-09-07T02:41:54;101214.00;;;25.00
20103;BMP180;10210;52.284;9.892;2023-09-07T02:44:20;101221.00;;;25.00
20103;BMP180;10210;52.284;9.892;2023-09-07T02:46:46;101220.00;;;25.00
20103;BMP180;10210;52.284;9.892;2023-09-07T02:49:12;101226.00;;;24.90
20103;BMP180;10210;52.284;9.892;2023-09-07T02:51:38;101223.00;;;24.90
20103;BMP180;10210;52.284;9.892;2023-09-07T02:54:05;101233.00;;;24.90
20103;BMP180;10210;52.284;9.892;2023-09-07T02:56:31;101225.00;;;24.90
20103;BMP180;10210;52.284;9.892;2023-09-07T02:58:57;101227.00;;;24.90
20103;BMP180;10210;52.284;9.892;2023-09-07T03:01:22;101223.00;;;24.90
20103;BMP180;10210;52.284;9.892;2023-09-07T03:03:48;101222.00;;;24.90
20103;BMP180;10210;52.284;9.892;2023-09-07T03:06:15;101220.00;;;24.90
20103;BMP180;10210;52.284;9.892;2023-09-07T03:08:44;101224.00;;;24.90
20103;BMP180;10210;52.284;9.892;2023-09-07T03:11:10;101221.00;;;24.80
20103;BMP180;10210;52.284;9.892;2023-09-07T03:13:36;101212.00;;;24.80
20103;BMP180;10210;52.284;9.892;2023-09-07T03:16:03;101208.00;;;24.80
20103;BMP180;10210;52.284;9.892;2023-09-07T03:18:30;101222.00;;;24.80
20103;BMP180;10210;52.284;9.892;2023-09-07T03:20:59;101223.00;;;24.70
20103;BMP180;10210;52.284;9.892;2023-09-07T03:23:27;101225.00;;;24.70
20103;BMP180;10210;52.284;9.892;2023-09-07T03:25:52;101225.00;;;24.60
20103;BMP180;10210;52.284;9.892;2023-09-07T03:28:18;101227.00;;;24.60
20103;BMP180;10210;52.284;9.892;2023-09-07T03:30:44;101225.00;;;24.60
20103;BMP180;10210;52.284;9.892;2023-09-07T03:33:10;101228.00;;;24.50
20103;BMP180;10210;52.284;9.892;2023-09-07T03:35:35;101231.00;;;24.50
20103;BMP180;10210;52.284;9.892;2023-09-07T03:38:01;101226.00;;;24.50
20103;BMP180;10210;52.284;9.892;2023-09-07T03:40:27;101221.00;;;24.50
20103;BMP180;10210;52.284;9.892;2023-09-07T03:42:52;101220.00;;;24.50
20103;BMP180;10210;52.284;9.892;2023-09-07T03:45:18;101225.00;;;24.40
20103;BMP180;10210;52.284;9.892;2023-09-07T03:47:44;101222.00;;;24.40
20103;BMP180;10210;52.284;9.892;2023-09-07T03:50:10;101227.00;;;24.40
20103;BMP180;10210;52.284;9.892;2023-09-07T03:52:36;101228.00;;;24.40
20103;BMP180;10210;52.284;9.892;2023-09-07T03:55:02;101227.00;;;24.40
20103;BMP180;10210;52.284;9.892;2023-09-07T03:57:28;101226.00;;;24.30
20103;BMP180;10210;52.284;9.892;2023-09-07T03:59:56;101225.00;;;24.30
20103;BMP180;10210;52.284;9.892;2023-09-07T04:02:22;101233.00;;;24.30
20103;BMP180;10210;52.284;9.892;2023-09-07T04:04:52;101225.00;;;24.20
20103;BMP180;10210;52.284;9.892;2023-09-07T04:07:17;101231.00;;;24.20
20103;BMP180;10210;52.284;9.892;2023-09-07T04:09:45;101227.00;;;24.20
20103;BMP180;10210;52.284;9.892;2023-09-07T04:12:11;101227.00;;;24.10
20103;BMP180;10210;52.284;9.892;2023-09-07T04:14:37;101224.00;;;24.10
20103;BMP180;10210;52.284;9.892;2023-09-07T04:17:04;101223.00;;;24.10
20103;BMP180;10210;52.284;9.892;2023-09-07T04:19:30;101223.00;;;24.10
20103;BMP180;10210;52.284;9.892;2023-09-07T04:21:57;101223.00;;;24.00
20103;BMP180;10210;52.284;9.892;2023-09-07T04:24:23;101231.00;;;24.00
20103;BMP180;10210;52.284;9.892;2023-09-07T04:26:49;101237.00;;;24.00
20103;BMP180;10210;52.284;9.892;2023-09-07T04:29:17;101234.00;;;24.00
20103;BMP180;10210;52.284;9.892;2023-09-07T04:31:43;101233.00;;;23.90
20103;BMP180;10210;52.284;9.892;2023-09-07T04:34:09;101241.00;;;23.90
20103;BMP180;10210;52.284;9.892;2023-09-07T04:36:34;101240.00;;;23.80
20103;BMP180;10210;52.284;9.892;2023-09-07T04:39:00;101232.00;;;23.80
20103;BMP180;10210;52.284;9.892;2023-09-07T04:41:26;101233.00;;;23.80
20103;BMP180;10210;52.284;9.892;2023-09-07T04:43:52;101231.00;;;23.80
20103;BMP180;10210;52.284;9.892;2023-09-07T04:46:22;101241.00;;;23.70
20103;BMP180;10210;52.284;9.892;2023-09-07T04:48:48;101240.00;;;23.70
20103;BMP180;10210;52.284;9.892;2023-09-07T04:51:14;101233.00;;;23.70
20103;BMP180;10210;52.284;9.892;2023-09-07T04:53:40;101232.00;;;23.60
20103;BMP180;10210;52.284;9.892;2023-09-07T04:56:07;101239.00;;;23.60
20103;BMP180;10210;52.284;9.892;2023-09-07T04:58:36;101225.00;;;23.60
20103;BMP180;10210;52.284;9.892;2023-09-07T05:01:06;101235.00;;;23.60
20103;BMP180;10210;52.284;9.892;2023-09-07T05:03:32;101238.00;;;23.60
20103;BMP180;10210;52.284;9.892;2023-09-07T05:06:00;101237.00;;;23.60
20103;BMP180;10210;52.284;9.892;2023-09-07T05:08:25;101237.00;;;23.60
20103;BMP180;10210;52.284;9.892;2023-09-07T05:10:56;101236.00;;;23.60
20103;BMP180;10210;52.284;9.892;2023-09-07T05:13:23;101250.00;;;23.60
20103;BMP180;10210;52.284;9.892;2023-09-07T05:15:54;101237.00;;;23.60
20103;BMP180;10210;52.284;9.892;2023-09-07T05:18:20;101231.00;;;23.60
20103;BMP180;10210;52.284;9.892;2023-09-07T05:20:46;101243.00;;;23.60
20103;BMP180;10210;52.284;9.892;2023-09-07T05:23:18;101240.00;;;23.60
20103;BMP180;10210;52.284;9.892;2023-09-07T05:26:02;101238.00;;;23.50
20103;BMP180;10210;52.284;9.892;2023-09-07T05:28:28;101241.00;;;23.60
20103;BMP180;10210;52.284;9.892;2023-09-07T05:30:54;101238.00;;;23.60
20103;BMP180;10210;52.284;9.892;2023-09-07T05:33:20;101239.00;;;23.60
20103;BMP180;10210;52.284;9.892;2023-09-07T05:35:45;101235.00;;;23.50
20103;BMP180;10210;52.284;9.892;2023-09-07T05:38:11;101242.00;;;23.50
20103;BMP180;10210;52.284;9.892;2023-09-07T05:40:40;101239.00;;;23.50
20103;BMP180;10210;52.284;9.892;2023-09-07T05:43:06;101240.00;;;23.40
20103;BMP180;10210;52.284;9.892;2023-09-07T05:45:38;101239.00;;;23.40
20103;BMP180;10210;52.284;9.892;2023-09-07T05:48:05;101231.00;;;23.40
20103;BMP180;10210;52.284;9.892;2023-09-07T05:50:33;101239.00;;;23.30
20103;BMP180;10210;52.284;9.892;2023-09-07T05:52:59;101234.00;;;23.30
20103;BMP180;10210;52.284;9.892;2023-09-07T05:55:25;101238.00;;;23.30
20103;BMP180;10210;52.284;9.892;2023-09-07T05:57:56;101243.00;;;23.30
20103;BMP180;10210;52.284;9.892;2023-09-07T06:00:23;101246.00;;;23.30
20103;BMP180;10210;52.284;9.892;2023-09-07T06:02:49;101243.00;;;23.30
20103;BMP180;10210;52.284;9.892;2023-09-07T06:05:15;101250.00;;;23.30
20103;BMP180;10210;52.284;9.892;2023-09-07T06:07:41;101249.00;;;23.40
20103;BMP180;10210;52.284;9.892;2023-09-07T06:10:07;101257.00;;;23.40
20103;BMP180;10210;52.284;9.892;2023-09-07T06:12:34;101249.00;;;23.40
20103;BMP180;10210;52.284;9.892;2023-09-07T06:15:00;101245.00;;;23.50
20103;BMP180;10210;52.284;9.892;2023-09-07T06:17:27;101250.00;;;23.50
20103;BMP180;10210;52.284;9.892;2023-09-07T06:19:54;101257.00;;;23.50
20103;BMP180;10210;52.284;9.892;2023-09-07T06:22:20;101256.00;;;23.50
20103;BMP180;10210;52.284;9.892;2023-09-07T06:24:46;101264.00;;;23.60
20103;BMP180;10210;52.284;9.892;2023-09-07T06:27:11;101255.00;;;23.60
20103;BMP180;10210;52.284;9.892;2023-09-07T06:29:37;101264.00;;;23.60
20103;BMP180;10210;52.284;9.892;2023-09-07T06:32:03;101262.00;;;23.60
20103;BMP180;10210;52.284;9.892;2023-09-07T06:34:29;101261.00;;;23.70
20103;BMP180;10210;52.284;9.892;2023-09-07T06:36:55;101276.00;;;23.70
20103;BMP180;10210;52.284;9.892;2023-09-07T06:39:20;101275.00;;;23.80
20103;BMP180;10210;52.284;9.892;2023-09-07T06:41:46;101276.00;;;23.80
20103;BMP180;10210;52.284;9.892;2023-09-07T06:44:13;101286.00;;;23.80
20103;BMP180;10210;52.284;9.892;2023-09-07T06:46:40;101276.00;;;23.90
20103;BMP180;10210;52.284;9.892;2023-09-07T06:49:05;101274.00;;;23.90
20103;BMP180;10210;52.284;9.892;2023-09-07T06:51:31;101274.00;;;24.00
20103;BMP180;10210;52.284;9.892;2023-09-07T06:53:57;101277.00;;;24.10
20103;BMP180;10210;52.284;9.892;2023-09-07T06:56:23;101284.00;;;24.10
20103;BMP180;10210;52.284;9.892;2023-09-07T06:58:51;101279.00;;;24.20
20103;BMP180;10210;52.284;9.892;2023-09-07T07:01:16;101277.00;;;24.30
20103;BMP180;10210;52.284;9.892;2023-09-07T07:03:42;101275.00;;;24.30
20103;BMP180;10210;52.284;9.892;2023-09-07T07:06:08;101278.00;;;24.40
20103;BMP180;10210;52.284;9.892;2023-09-07T07:08:34;101280.00;;;24.40
20103;BMP180;10210;52.284;9.892;2023-09-07T07:10:59;101281.00;;;24.50
20103;BMP180;10210;52.284;9.892;2023-09-07T07:13:25;101276.00;;;24.60
20103;BMP180;10210;52.284;9.892;2023-09-07T07:15:51;101276.00;;;24.70
20103;BMP180;10210;52.284;9.892;2023-09-07T07:18:17;101275.00;;;24.70
20103;BMP180;10210;52.284;9.892;2023-09-07T07:20:44;101277.00;;;24.80
20103;BMP180;10210;52.284;9.892;2023-09-07T07:23:11;101276.00;;;24.90
20103;BMP180;10210;52.284;9.892;2023-09-07T07:25:38;101283.00;;;25.00
20103;BMP180;10210;52.284;9.892;2023-09-07T07:28:05;101281.00;;;25.10
20103;BMP180;10210;52.284;9.892;2023-09-07T07:30:36;101273.00;;;25.50
20103;BMP180;10210;52.284;9.892;2023-09-07T07:33:05;101281.00;;;26.10
20103;BMP180;10210;52.284;9.892;2023-09-07T07:35:32;101284.00;;;26.70
20103;BMP180;10210;52.284;9.892;2023-09-07T07:37:58;101284.00;;;27.40
20103;BMP180;10210;52.284;9.892;2023-09-07T07:40:24;101290.00;;;28.10
20103;BMP180;10210;52.284;9.892;2023-09-07T07:42:52;101292.00;;;28.80
20103;BMP180;10210;52.284;9.892;2023-09-07T07:45:18;101292.00;;;29.50
20103;BMP180;10210;52.284;9.892;2023-09-07T07:47:46;101295.00;;;30.10
20103;BMP180;10210;52.284;9.892;2023-09-07T07:50:12;101299.00;;;30.70
20103;BMP180;10210;52.284;9.892;2023-09-07T07:52:38;101302.00;;;31.30
20103;BMP180;10210;52.284;9.892;2023-09-07T07:55:04;101298.00;;;31.80
20103;BMP180;10210;52.284;9.892;2023-09-07T07:57:31;101306.00;;;32.20
20103;BMP180;10210;52.284;9.892;2023-09-07T07:59:57;101299.00;;;32.70
20103;BMP180;10210;52.284;9.892;2023-09-07T08:02:23;101307.00;;;33.10
20103;BMP180;10210;52.284;9.892;2023-09-07T08:04:49;101304.00;;;33.40
20103;BMP180;10210;52.284;9.892;2023-09-07T08:07:15;101306.00;;;33.60
20103;BMP180;10210;52.284;9.892;2023-09-07T08:09:40;101304.00;;;33.90
20103;BMP180;10210;52.284;9.892;2023-09-07T08:12:06;101306.00;;;34.10
20103;BMP180;10210;52.284;9.892;2023-09-07T08:14:32;101305.00;;;34.30
20103;BMP180;10210;52.284;9.892;2023-09-07T08:16:58;101306.00;;;34.50
20103;BMP180;10210;52.284;9.892;2023-09-07T08:19:24;101303.00;;;34.80
20103;BMP180;10210;52.284;9.892;2023-09-07T08:21:51;101303.00;;;34.90
20103;BMP180;10210;52.284;9.892;2023-09-07T08:24:16;101298.00;;;35.00
20103;BMP180;10210;52.284;9.892;2023-09-07T08:26:43;101300.00;;;35.10
20103;BMP180;10210;52.284;9.892;2023-09-07T08:29:09;101302.00;;;35.10
20103;BMP180;10210;52.284;9.892;2023-09-07T08:31:37;101309.00;;;35.20
20103;BMP180;10210;52.284;9.892;2023-09-07T08:34:06;101314.00;;;35.30
20103;BMP180;10210;52.284;9.892;2023-09-07T08:36:34;101306.00;;;35.30
20103;BMP180;10210;52.284;9.892;2023-09-07T08:39:04;101309.00;;;35.30
20103;BMP180;10210;52.284;9.892;2023-09-07T08:41:40;101311.00;;;35.40
20103;BMP180;10210;52.284;9.892;2023-09-07T08:44:10;101308.00;;;35.40
20103;BMP180;10210;52.284;9.892;2023-09-07T08:46:37;101311.00;;;35.50
20103;BMP180;10210;52.284;9.892;2023-09-07T08:49:04;101311.00;;;35.60
20103;BMP180;10210;52.284;9.892;2023-09-07T08:51:31;101312.00;;;35.60
20103;BMP180;10210;52.284;9.892;2023-09-07T08:54:01;101317.00;;;35.70
20103;BMP180;10210;52.284;9.892;2023-09-07T08:56:28;101312.00;;;35.70
20103;BMP180;10210;52.284;9.892;2023-09-07T08:58:54;101317.00;;;35.70
20103;BMP180;10210;52.284;9.892;2023-09-07T09:01:20;101322.00;;;35.70
20103;BMP180;10210;52.284;9.892;2023-09-07T09:03:50;101313.00;;;35.70
20103;BMP180;10210;52.284;9.892;2023-09-07T09:06:21;101316.00;;;35.70
20103;BMP180;10210;52.284;9.892;2023-09-07T09:08:50;101308.00;;;35.70
20103;BMP180;10210;52.284;9.892;2023-09-07T09:11:17;101314.00;;;35.60
20103;BMP180;10210;52.284;9.892;2023-09-07T09:13:44;101310.00;;;35.60
20103;BMP180;10210;52.284;9.892;2023-09-07T09:16:11;101311.00;;;35.50
20103;BMP180;10210;52.284;9.892;2023-09-07T09:18:38;101305.00;;;35.40
20103;BMP180;10210;52.284;9.892;2023-09-07T09:21:14;101311.00;;;35.30
20103;BMP180;10210;52.284;9.892;2023-09-07T09:23:40;101308.00;;;35.30
20103;BMP180;10210;52.284;9.892;2023-09-07T09:26:06;101306.00;;;35.30
20103;BMP180;10210;52.284;9.892;2023-09-07T09:28:34;101306.00;;;35.30
20103;BMP180;10210;52.284;9.892;2023-09-07T09:31:02;101302.00;;;35.20
20103;BMP180;10210;52.284;9.892;2023-09-07T09:33:31;101302.00;;;35.20
20103;BMP180;10210;52.284;9.892;2023-09-07T09:35:57;101312.00;;;35.20
20103;BMP180;10210;52.284;9.892;2023-09-07T09:38:23;101302.00;;;35.10
20103;BMP180;10210;52.284;9.892;2023-09-07T09:40:51;101297.00;;;35.10
20103;BMP180;10210;52.284;9.892;2023-09-07T09:43:20;101292.00;;;35.00
20103;BMP180;10210;52.284;9.892;2023-09-07T09:45:48;101294.00;;;35.00
20103;BMP180;10210;52.284;9.892;2023-09-07T09:48:18;101302.00;;;35.00
20103;BMP180;10210;52.284;9.892;2023-09-07T09:50:46;101296.00;;;35.00
20103;BMP180;10210;52.284;9.892;2023-09-07T09:53:16;101290.00;;;35.00
20103;BMP180;10210;52.284;9.892;2023-09-07T09:55:48;101284.00;;;35.00
20103;BMP180;10210;52.284;9.892;2023-09-07T09:58:15;101292.00;;;34.90
20103;BMP180;10210;52.284;9.892;2023-09-07T10:00:55;101285.00;;;34.80
20103;BMP180;10210;52.284;9.892;2023-09-07T10:03:32;101286.00;;;34.80
20103;BMP180;10210;52.284;9.892;2023-09-07T10:06:11;101286.00;;;34.70
20103;BMP180;10210;52.284;9.892;2023-09-07T10:08:39;101277.00;;;34.70
20103;BMP180;10210;52.284;9.892;2023-09-07T10:11:09;101280.00;;;34.60
20103;BMP180;10210;52.284;9.892;2023-09-07T10:13:35;101281.00;;;34.60
20103;BMP180;10210;52.284;9.892;2023-09-07T10:16:06;101283.00;;;34.50
20103;BMP180;10210;52.284;9.892;2023-09-07T10:18:37;101283.00;;;34.40
20103;BMP180;10210;52.284;9.892;2023-09-07T10:21:04;101276.00;;;34.30
20103;BMP180;10210;52.284;9.892;2023-09-07T10:23:42;101279.00;;;34.20
20103;BMP180;10210;52.284;9.892;2023-09-07T10:26:16;101275.00;;;34.20
20103;BMP180;10210;52.284;9.892;2023-09-07T10:28:46;101281.00;;;34.10
20103;BMP180;10210;52.284;9.892;2023-09-07T10:31:19;101266.00;;;34.10
20103;BMP180;10210;52.284;9.892;2023-09-07T10:33:50;101262.00;;;34.00
20103;BMP180;10210;52.284;9.892;2023-09-07T10:36:26;101267.00;;;33.90
20103;BMP180;10210;52.284;9.892;2023-09-07T10:38:54;101259.00;;;33.80
20103;BMP180;10210;52.284;9.892;2023-09-07T10:41:21;101256.00;;;33.80
20103;BMP180;10210;52.284;9.892;2023-09-07T10:43:53;101269.00;;;33.70
20103;BMP180;10210;52.284;9.892;2023-09-07T10:46:23;101259.00;;;33.60
20103;BMP180;10210;52.284;9.892;2023-09-07T10:48:53;101252.00;;;33.60
20103;BMP180;10210;52.284;9.892;2023-09-07T10:51:22;101259.00;;;33.50
20103;BMP180;10210;52.284;9.892;2023-09-07T10:53:49;101250.00;;;33.50
20103;BMP180;10210;52.284;9.892;2023-09-07T10:56:14;101259.00;;;33.50
20103;BMP180;10210;52.284;9.892;2023-09-07T10:58:41;101254.00;;;33.50
20103;BMP180;10210;52.284;9.892;2023-09-07T11:01:08;101253.00;;;33.50
20103;BMP180;10210;52.284;9.892;2023-09-07T11:03:36;101253.00;;;33.50
20103;BMP180;10210;52.284;9.892;2023-09-07T11:06:16;101246.00;;;33.50
20103;BMP180;10210;52.284;9.892;2023-09-07T11:08:46;101241.00;;;33.50
20103;BMP180;10210;52.284;9.892;2023-09-07T11:11:12;101237.00;;;33.50
20103;BMP180;10210;52.284;9.892;2023-09-07T11:13:38;101232.00;;;33.40
20103;BMP180;10210;52.284;9.892;2023-09-07T11:16:08;101236.00;;;33.40
20103;BMP180;10210;52.284;9.892;2023-09-07T11:18:35;101238.00;;;33.50
20103;BMP180;10210;52.284;9.892;2023-09-07T11:21:03;101234.00;;;33.50
20103;BMP180;10210;52.284;9.892;2023-09-07T11:23:31;101238.00;;;33.50
20103;BMP180;10210;52.284;9.892;2023-09-07T11:26:08;101236.00;;;33.50
20103;BMP180;10210;52.284;9.892;2023-09-07T11:28:34;101244.00;;;33.60
20103;BMP180;10210;52.284;9.892;2023-09-07T11:31:00;101233.00;;;33.60
20103;BMP180;10210;52.284;9.892;2023-09-07T11:33:26;101243.00;;;33.60
20103;BMP180;10210;52.284;9.892;2023-09-07T11:35:56;101233.00;;;33.60
20103;BMP180;10210;52.284;9.892;2023-09-07T11:38:22;101226.00;;;33.60
20103;BMP180;10210;52.284;9.892;2023-09-07T11:40:48;101224.00;;;33.60
20103;BMP180;10210;52.284;9.892;2023-09-07T11:43:16;101223.00;;;33.60
20103;BMP180;10210;52.284;9.892;2023-09-07T11:45:44;101216.00;;;33.70
20103;BMP180;10210;52.284;9.892;2023-09-07T11:48:10;101219.00;;;33.70
20103;BMP180;10210;52.284;9.892;2023-09-07T11:50:37;101221.00;;;33.80
20103;BMP180;10210;52.284;9.892;2023-09-07T11:53:04;101214.00;;;33.80
20103;BMP180;10210;52.284;9.892;2023-09-07T11:55:30;101221.00;;;33.90
20103;BMP180;10210;52.284;9.892;2023-09-07T11:57:56;101211.00;;;33.90
20103;BMP180;10210;52.284;9.892;2023-09-07T12:00:22;101216.00;;;33.90
20103;BMP180;10210;52.284;9.892;2023-09-07T12:02:49;101215.00;;;33.90
20103;BMP180;10210;52.284;9.892;2023-09-07T12:05:15;101211.00;;;34.00
20103;BMP180;10210;52.284;9.892;2023-09-07T12:07:44;101209.00;;;34.10
20103;BMP180;10210;52.284;9.892;2023-09-07T12:10:10;101204.00;;;34.10
20103;BMP180;10210;52.284;9.892;2023-09-07T12:12:43;101212.00;;;34.20
20103;BMP180;10210;52.284;9.892;2023-09-07T12:15:12;101205.00;;;34.20
20103;BMP180;10210;52.284;9.892;2023-09-07T12:17:38;101207.00;;;34.20
20103;BMP180;10210;52.284;9.892;2023-09-07T12:20:04;101204.00;;;34.30
20103;BMP180;10210;52.284;9.892;2023-09-07T12:22:36;101198.00;;;34.30
20103;BMP180;10210;52.284;9.892;2023-09-07T12:25:07;101199.00;;;34.40
20103;BMP180;10210;52.284;9.892;2023-09-07T12:27:34;101195.00;;;34.40
20103;BMP180;10210;52.284;9.892;2023-09-07T12:30:01;101199.00;;;34.40
20103;BMP180;10210;52.284;9.892;2023-09-07T12:32:27;101188.00;;;34.50
20103;BMP180;10210;52.284;9.892;2023-09-07T12:34:53;101201.00;;;34.60
20103;BMP180;10210;52.284;9.892;2023-09-07T12:37:19;101204.00;;;34.60
20103;BMP180;10210;52.284;9.892;2023-09-07T12:39:51;101199.00;;;34.60
20103;BMP180;10210;52.284;9.892;2023-09-07T12:42:17;101195.00;;;34.70
20103;BMP180;10210;52.284;9.892;2023-09-07T12:44:44;101191.00;;;34.70
20103;BMP180;10210;52.284;9.892;2023-09-07T12:47:10;101191.00;;;34.70
20103;BMP180;10210;52.284;9.892;2023-09-07T12:49:36;101187.00;;;34.80
20103;BMP180;10210;52.284;9.892;2023-09-07T12:52:01;101195.00;;;34.80
20103;BMP180;10210;52.284;9.892;2023-09-07T12:54:34;101190.00;;;34.80
20103;BMP180;10210;52.284;9.892;2023-09-07T12:57:01;101191.00;;;34.80
20103;BMP180;10210;52.284;9.892;2023-09-07T12:59:27;101187.00;;;34.90
20103;BMP180;10210;52.284;9.892;2023-09-07T13:01:53;101182.00;;;34.90
20103;BMP180;10210;52.284;9.892;2023-09-07T13:04:21;101179.00;;;34.90
20103;BMP180;10210;52.284;9.892;2023-09-07T13:06:47;101176.00;;;35.00
20103;BMP180;10210;52.284;9.892;2023-09-07T13:09:13;101178.00;;;35.00
20103;BMP180;10210;52.284;9.892;2023-09-07T13:11:38;101174.00;;;35.00
20103;BMP180;10210;52.284;9.892;2023-09-07T13:14:05;101169.00;;;35.10
20103;BMP180;10210;52.284;9.892;2023-09-07T13:16:30;101162.00;;;35.10
20103;BMP180;10210;52.284;9.892;2023-09-07T13:18:58;101158.00;;;35.20
20103;BMP180;10210;52.284;9.892;2023-09-07T13:21:24;101167.00;;;35.20
20103;BMP180;10210;52.284;9.892;2023-09-07T13:23:50;101159.00;;;35.20
20103;BMP180;10210;52.284;9.892;2023-09-07T13:26:15;101164.00;;;35.30
20103;BMP180;10210;52.284;9.892;2023-09-07T13:28:41;101160.00;;;35.30
20103;BMP180;10210;52.284;9.892;2023-09-07T13:31:07;101160.00;;;35.30
20103;BMP180;10210;52.284;9.892;2023-09-07T13:33:33;101159.00;;;35.30
20103;BMP180;10210;52.284;9.892;2023-09-07T13:35:58;101155.00;;;35.30
20103;BMP180;10210;52.284;9.892;2023-09-07T13:38:24;101145.00;;;35.30
20103;BMP180;10210;52.284;9.892;2023-09-07T13:40:50;101147.00;;;35.30
20103;BMP180;10210;52.284;9.892;2023-09-07T13:43:16;101143.00;;;35.30
20103;BMP180;10210;52.284;9.892;2023-09-07T13:45:41;101148.00;;;35.30
20103;BMP180;10210;52.284;9.892;2023-09-07T13:48:08;101147.00;;;35.30
20103;BMP180;10210;52.284;9.892;2023-09-07T13:50:34;101148.00;;;35.30
20103;BMP180;10210;52.284;9.892;2023-09-07T13:52:59;101150.00;;;35.30
20103;BMP180;10210;52.284;9.892;2023-09-07T13:55:25;101144.00;;;35.30